EFTPEETN

Guest
Details From EFTP - Tampere Pirkkala
To EETN - Tallinn
Flight Number -
Tags Generated
Created
Modified
Stats Distance 125 nm / 232 km
Max Altitude 0 ft / 0 m
Waypoints 2
Social Downloads 0
Likes 0
Share VATSIM

Download

Looking for another format? Having issues loading an existing format? Contact us
Advertisement - Login to hide

Notes

Generated

Route

EFTP EETN

ID Type Via Altitude Latitude Longitude Leg Dist Tot Dist Heading (true) Name
O EFTP APT - 0 ft / 0 m 61.40892˚ 23.58159˚ - 0 nm - -
O EETN APT - 0 ft / 0 m 59.41332˚ 24.80581˚ 125 nm 125 nm 163° / 164° -

Altitude Profile

Advertisement - Login to hide

EFTP

Details ICAO EFTP (TMP)
Name Tampere Pirkkala
Region Finland
Timezone Europe/Helsinki (UTC+2.0)
Stats Elevation 390 ft / 119 m (AMSL)
Location 61.414145° 23.604397°
Runways 1
Magnetic Variation 8.755° E

METAR

EFTP 131050Z 20010KT 9999 BKN012 M03/M05 Q0993

Decode

TAF

TAF AMD EFTP 130921Z 1309/1409 21010G20KT 9999 BKN010 TEMPO 1309/1315 SCT010 TEMPO 1315/1403 4000 -SNRA BKN008 PROB30 TEMPO 1320/1403 1500 -FZDZ BKN004

Decode

Departure Runways

ID Width Length Bearing (true) Bearing (mag) Surface Threshold Offset Overrun Length
06 148 ft / 45 m 8,831 ft / 2,692 m 64.40° 55.65° Asphalt 0 ft / 0 m 801 ft / 244 m
24 148 ft / 45 m 8,831 ft / 2,692 m 244.45° 235.70° Asphalt 0 ft / 0 m 640 ft / 195 m

EETN

Details ICAO EETN (TLL)
Name TALLINN
Region Estonia
Timezone Europe/Tallinn (UTC+2.0)
Stats Elevation 131 ft / 40 m (AMSL)
Location 59.413257° 24.832803°
Runways 1
Magnetic Variation 8.635° E

METAR

EETN 131050Z 22013KT 9999 SCT032 01/M03 Q0999 R08/820395 NOSIG

Decode

TAF

TAF EETN 130530Z 1306/1406 25016G26KT 9999 BKN025 TEMPO 1306/1309 2000 SHSNRA BKN004 SCT013CB BECMG 1311/1313 19015G25KT TEMPO 1313/1319 3000 SHSNRA BKN005 SCT013CB

Decode

Destination Runways

ID Width Length Bearing (true) Bearing (mag) Surface Threshold Offset Overrun Length
08 148 ft / 45 m 10,023 ft / 3,055 m 90.24° 81.60° Asphalt 820 ft / 250 m 0 ft / 0 m
26 148 ft / 45 m 10,023 ft / 3,055 m 270.28° 261.64° Asphalt 0 ft / 0 m 184 ft / 56 m

Approach Navaids

Runway Type Ident Frequency Range Bearing (true) Bearing (mag) Slope Elevation
08 Localiser IIB 111.70 MHz 18 nm / 33 km 90.33° 81.69° - 131 ft / 40 m (AMSL)
08 Glidescope IIB 111.70 MHz 10 nm / 19 km 90.26° 81.63° 3.00° 131 ft / 40 m (AMSL)
26 Localiser ILK 110.30 MHz 18 nm / 33 km 270.24° 261.61° - 131 ft / 40 m (AMSL)
26 Glidescope ILK 110.30 MHz 10 nm / 19 km 270.26° 261.63° 3.00° 131 ft / 40 m (AMSL)

Popular Alternatives